createdAt,value
2022-12-25T00:00:31.484Z,100507.8
2022-12-25T00:01:31.431Z,100511.09
2022-12-25T00:02:32.276Z,100517.59
2022-12-25T00:03:32.729Z,100513.02
2022-12-25T00:04:33.191Z,100519.2
2022-12-25T00:05:34.222Z,100525.59
2022-12-25T00:06:34.227Z,100531.86
2022-12-25T00:07:34.618Z,100527.56
2022-12-25T00:08:35.172Z,100532.69
2022-12-25T00:09:35.479Z,100533.5
2022-12-25T00:10:42.913Z,100535.94
2022-12-25T00:11:38.012Z,100535.3
2022-12-25T00:12:38.271Z,100535.25
2022-12-25T00:13:38.980Z,100537.93
2022-12-25T00:14:38.693Z,100541.72
2022-12-25T00:15:42.141Z,100540.44
2022-12-25T00:16:39.778Z,100544.13
2022-12-25T00:17:40.239Z,100544.88
2022-12-25T00:18:40.569Z,100544.28
2022-12-25T00:19:40.981Z,100550.53
2022-12-25T00:20:41.491Z,100551.47
2022-12-25T00:21:42.129Z,100552.11
2022-12-25T00:22:42.317Z,100555.06
2022-12-25T00:23:42.894Z,100557.52
2022-12-25T00:24:43.459Z,100562.9
2022-12-25T00:25:43.667Z,100565.5
2022-12-25T00:26:44.313Z,100569.59
2022-12-25T00:27:44.672Z,100571.75
2022-12-25T00:28:45.432Z,100568.35
2022-12-25T00:29:45.714Z,100566.09
2022-12-25T00:30:45.955Z,100561.34
2022-12-25T00:31:46.542Z,100565.43
2022-12-25T00:32:47.002Z,100565.28
2022-12-25T00:33:49.064Z,100558.23
2022-12-25T00:34:48.141Z,100562.73
2022-12-25T00:36:52.962Z,100559.97
2022-12-25T00:37:53.072Z,100559.33
2022-12-25T00:38:53.492Z,100563.56
2022-12-25T00:39:53.919Z,100563.14
2022-12-25T00:40:55.244Z,100564.23
2022-12-25T00:41:54.981Z,100569.77
2022-12-25T00:42:55.230Z,100562.52
2022-12-25T00:43:56.284Z,100563.11
2022-12-25T00:44:56.607Z,100567.56
2022-12-25T00:45:59.335Z,100572.09
2022-12-25T00:46:57.688Z,100565.23
2022-12-25T00:47:58.252Z,100569.84
2022-12-25T00:48:59.693Z,100575.98
2022-12-25T00:49:58.853Z,100574.56
2022-12-25T00:51:02.473Z,100570.36
2022-12-25T00:51:59.760Z,100571
2022-12-25T00:53:00.386Z,100568.45
2022-12-25T00:54:00.766Z,100570.09
2022-12-25T00:55:01.202Z,100567.36
2022-12-25T00:56:04.354Z,100569.23
2022-12-25T00:57:02.836Z,100572
2022-12-25T00:58:02.527Z,100568.45
2022-12-25T00:59:03.550Z,100572.52
2022-12-25T01:00:04.170Z,100571.03
2022-12-25T01:01:04.191Z,100571.02
2022-12-25T01:02:04.707Z,100574.8
2022-12-25T01:03:04.890Z,100573.69
2022-12-25T01:04:05.852Z,100570.23
2022-12-25T01:05:06.965Z,100569.81
2022-12-25T01:06:08.215Z,100572.61
2022-12-25T01:07:06.586Z,100569
2022-12-25T01:08:07.198Z,100569.23
2022-12-25T01:09:08.014Z,100566.43
2022-12-25T01:10:10.597Z,100570.89
2022-12-25T01:11:09.269Z,100571.65
2022-12-25T01:12:08.965Z,100573.55
2022-12-25T01:13:09.303Z,100577.09
2022-12-25T01:14:10.101Z,100574.84
2022-12-25T01:15:11.685Z,100578.28
2022-12-25T01:16:11.411Z,100580.28
2022-12-25T01:17:11.139Z,100579.12
2022-12-25T01:18:13.035Z,100580.23
2022-12-25T01:19:12.153Z,100581.61
2022-12-25T01:20:14.361Z,100586.01
2022-12-25T01:21:15.070Z,100584.26
2022-12-25T01:22:13.799Z,100583.3
2022-12-25T01:23:14.406Z,100589.52
2022-12-25T01:24:14.364Z,100588.62
2022-12-25T01:25:14.898Z,100587.25
2022-12-25T01:26:16.215Z,100592.68
2022-12-25T01:27:15.721Z,100595.92
2022-12-25T01:28:16.618Z,100592.95
2022-12-25T01:29:16.763Z,100595.85
2022-12-25T01:30:17.469Z,100600.86
2022-12-25T01:31:20.304Z,100596.45
2022-12-25T01:32:18.001Z,100600.52
2022-12-25T01:33:18.514Z,100605.55
2022-12-25T01:34:18.839Z,100602.7
2022-12-25T01:35:19.353Z,100611.63
2022-12-25T01:36:24.756Z,100602.48
2022-12-25T01:37:22.243Z,100607.98
2022-12-25T01:38:22.643Z,100608.23
2022-12-25T01:39:23.271Z,100611.72
2022-12-25T01:40:23.591Z,100613.23
2022-12-25T01:41:25.609Z,100617.59
2022-12-25T01:42:24.532Z,100619.92
2022-12-25T01:43:28.016Z,100620.43
2022-12-25T01:45:42.669Z,100623.54
2022-12-25T01:46:31.104Z,100621.45
2022-12-25T01:47:30.515Z,100623.14
2022-12-25T01:48:38.271Z,100624.22
2022-12-25T01:49:38.924Z,100624.84
2022-12-25T01:50:39.741Z,100627.34
2022-12-25T01:52:40.359Z,100627.56
2022-12-25T01:53:40.790Z,100629.11
2022-12-25T01:54:45.408Z,100633.27
2022-12-25T01:55:45.910Z,100629.05
2022-12-25T01:56:45.496Z,100622.73
2022-12-25T01:57:44.171Z,100622.84
2022-12-25T01:58:44.283Z,100624.91
2022-12-25T01:59:46.127Z,100621.7
2022-12-25T02:00:45.707Z,100620.81
2022-12-25T02:01:47.059Z,100627.2
2022-12-25T02:02:46.629Z,100626.06
2022-12-25T02:03:46.368Z,100628.69
2022-12-25T02:05:51.599Z,100623.78
2022-12-25T02:06:52.326Z,100628.61
2022-12-25T02:07:52.962Z,100627.96
2022-12-25T02:08:52.452Z,100629.67
2022-12-25T02:09:53.259Z,100632.17
2022-12-25T02:10:53.432Z,100634.27
2022-12-25T02:11:53.902Z,100632.87
2022-12-25T02:12:54.012Z,100633.09
2022-12-25T02:13:54.720Z,100637.39
2022-12-25T02:15:04.892Z,100636.54
2022-12-25T02:36:09.320Z,100642.39
2022-12-25T02:41:17.118Z,100645.59
2022-12-25T02:44:25.523Z,100645.34
2022-12-25T02:46:30.667Z,100644.52
2022-12-25T02:47:29.662Z,100646.36
2022-12-25T02:48:33.142Z,100643.64
2022-12-25T02:49:31.942Z,100642.03
2022-12-25T02:50:31.431Z,100644.67
2022-12-25T02:51:36.237Z,100646.78
2022-12-25T02:52:34.216Z,100644.88
2022-12-25T02:53:34.813Z,100645.75
2022-12-25T02:54:38.432Z,100648.09
2022-12-25T02:55:40.562Z,100649.39
2022-12-25T02:56:40.784Z,100650.59
2022-12-25T02:57:44.465Z,100648.43
2022-12-25T02:58:44.078Z,100654.17
2022-12-25T02:59:47.464Z,100654.48
2022-12-25T03:00:52.016Z,100653.28
2022-12-25T03:01:50.328Z,100659.31
2022-12-25T03:02:51.912Z,100658.84
2022-12-25T03:03:53.824Z,100658.57
2022-12-25T03:04:53.216Z,100658.32
2022-12-25T03:05:54.446Z,100658.25
2022-12-25T03:07:53.067Z,100657.75
2022-12-25T03:14:09.565Z,100647.38
2022-12-25T03:15:12.284Z,100648.23
2022-12-25T03:16:10.298Z,100645.24
2022-12-25T03:17:10.647Z,100648.51
2022-12-25T03:18:16.651Z,100649.71
2022-12-25T03:19:14.206Z,100645.84
2022-12-25T03:20:14.508Z,100647.16
2022-12-25T03:21:15.031Z,100650.61
2022-12-25T03:23:20.582Z,100647.48
2022-12-25T03:24:18.027Z,100644.17
2022-12-25T03:25:19.355Z,100647.98
2022-12-25T03:26:19.164Z,100650.12
2022-12-25T03:27:19.590Z,100646.2
2022-12-25T03:28:19.987Z,100653.69
2022-12-25T03:29:20.626Z,100650.67
2022-12-25T03:30:22.674Z,100651.09
2022-12-25T03:45:13.662Z,100681.82
2022-12-25T03:46:15.805Z,100680.23
2022-12-25T03:48:16.753Z,100679.98
2022-12-25T03:49:24.796Z,100680.12
2022-12-25T03:50:29.064Z,100681.2
2022-12-25T03:51:30.087Z,100679.93
2022-12-25T03:52:23.021Z,100677.81
2022-12-25T03:55:28.698Z,100681.29
2022-12-25T03:56:30.936Z,100680.11
2022-12-25T03:57:29.522Z,100679.66
2022-12-25T03:58:29.927Z,100683.67
2022-12-25T03:59:30.457Z,100683.41
2022-12-25T04:00:31.021Z,100680.05
2022-12-25T04:01:31.434Z,100682.86
2022-12-25T04:02:32.029Z,100689.57
2022-12-25T04:03:32.611Z,100688.7
2022-12-25T04:04:32.937Z,100687.5
2022-12-25T04:05:33.572Z,100691.41
2022-12-25T04:06:33.968Z,100690.95
2022-12-25T04:07:34.481Z,100691.97
2022-12-25T04:08:34.783Z,100693.31
2022-12-25T04:09:35.336Z,100697.08
2022-12-25T04:10:35.848Z,100698.49
2022-12-25T04:11:36.264Z,100701.16
2022-12-25T04:12:36.674Z,100700.48
2022-12-25T04:13:37.057Z,100699.98
2022-12-25T04:14:37.707Z,100700.35
2022-12-25T04:15:37.966Z,100707.26
2022-12-25T04:16:38.511Z,100702.66
2022-12-25T04:17:39.049Z,100707.72
2022-12-25T04:18:39.665Z,100705.69
2022-12-25T04:19:39.796Z,100703
2022-12-25T04:20:40.207Z,100699.16
2022-12-25T04:21:40.828Z,100703.89
2022-12-25T04:22:41.263Z,100706.23
2022-12-25T04:23:41.672Z,100700.44
2022-12-25T04:24:42.199Z,100706.75
2022-12-25T04:25:42.471Z,100703.89
2022-12-25T04:26:43.324Z,100700.47
2022-12-25T04:27:43.425Z,100705.18
2022-12-25T04:28:43.858Z,100699.37
2022-12-25T04:29:44.356Z,100700.92
2022-12-25T04:30:44.816Z,100700.03
2022-12-25T04:31:45.618Z,100697.95
2022-12-25T04:32:45.713Z,100699.66
2022-12-25T04:33:46.329Z,100698.12
2022-12-25T04:34:46.655Z,100704.23
2022-12-25T04:35:48.495Z,100706.47
2022-12-25T04:36:47.758Z,100706.62
2022-12-25T04:37:47.991Z,100709.28
2022-12-25T04:38:48.517Z,100706.31
2022-12-25T04:39:49.030Z,100704.2
2022-12-25T04:40:49.372Z,100707.01
2022-12-25T04:41:49.995Z,100709.33
2022-12-25T04:42:51.418Z,100713.84
2022-12-25T04:43:50.801Z,100713.72
2022-12-25T04:44:51.122Z,100715.25
2022-12-25T04:45:55.699Z,100718.25
2022-12-25T04:46:53.563Z,100716.28
2022-12-25T04:47:53.604Z,100725.62
2022-12-25T04:48:54.215Z,100722.44
2022-12-25T04:49:54.844Z,100722.78
2022-12-25T04:50:54.948Z,100721.73
2022-12-25T04:51:55.565Z,100726.32
2022-12-25T04:52:55.987Z,100724.09
2022-12-25T04:53:56.614Z,100726.91
2022-12-25T04:54:56.924Z,100725.16
2022-12-25T04:57:00.205Z,100728.94
2022-12-25T04:58:00.523Z,100729.84
2022-12-25T04:59:01.166Z,100731.05
2022-12-25T05:00:01.477Z,100734.66
2022-12-25T05:01:02.995Z,100732.59
2022-12-25T05:02:02.766Z,100735.9
2022-12-25T05:03:03.135Z,100734.25
2022-12-25T05:04:03.227Z,100736.19
2022-12-25T05:05:04.356Z,100736.32
2022-12-25T05:06:05.502Z,100738.11
2022-12-25T05:07:04.684Z,100740.93
2022-12-25T05:08:05.475Z,100741.38
2022-12-25T05:09:05.524Z,100744.7
2022-12-25T05:10:07.155Z,100741.83
2022-12-25T05:11:08.715Z,100744.73
2022-12-25T05:12:07.035Z,100744.8
2022-12-25T05:13:07.391Z,100739.28
2022-12-25T05:14:07.790Z,100741.61
2022-12-25T05:15:09.250Z,100743.73
2022-12-25T05:17:12.332Z,100745.73
2022-12-25T05:18:12.624Z,100746.78
2022-12-25T05:19:13.476Z,100747.67
2022-12-25T05:20:13.768Z,100751.34
2022-12-25T05:21:14.293Z,100752.05
2022-12-25T05:22:14.422Z,100751.92
2022-12-25T05:23:15.032Z,100754.62
2022-12-25T05:24:15.540Z,100751.67
2022-12-25T05:25:15.855Z,100747.81
2022-12-25T05:26:19.634Z,100755.86
2022-12-25T05:27:17.008Z,100754.34
2022-12-25T05:28:17.515Z,100754.45
2022-12-25T05:29:18.135Z,100753.95
2022-12-25T05:30:18.650Z,100750.31
2022-12-25T05:31:19.610Z,100755.19
2022-12-25T05:32:19.247Z,100755.78
2022-12-25T05:33:19.694Z,100750.21
2022-12-25T05:34:20.095Z,100752.66
2022-12-25T05:35:20.624Z,100753
2022-12-25T05:36:21.456Z,100752.88
2022-12-25T05:37:21.477Z,100750.44
2022-12-25T05:38:22.093Z,100749.41
2022-12-25T05:39:22.722Z,100750.78
2022-12-25T05:40:23.638Z,100759.34
2022-12-25T05:41:23.340Z,100756.67
2022-12-25T05:42:23.748Z,100760.73
2022-12-25T05:43:24.264Z,100758.83
2022-12-25T05:44:24.573Z,100761.7
2022-12-25T05:45:25.193Z,100763.34
2022-12-25T05:46:25.653Z,100760.37
2022-12-25T05:47:25.934Z,100756.83
2022-12-25T05:48:26.473Z,100762.84
2022-12-25T05:49:26.868Z,100768.3
2022-12-25T05:50:27.496Z,100768.15
2022-12-25T05:51:27.698Z,100763.97
2022-12-25T05:52:31.916Z,100769.2
2022-12-25T05:53:29.461Z,100773.38
2022-12-25T05:54:29.828Z,100775.53
2022-12-25T05:55:30.293Z,100775.97
2022-12-25T05:56:30.826Z,100780.31
2022-12-25T05:57:33.005Z,100780.25
2022-12-25T05:58:33.490Z,100775.09
2022-12-25T05:59:33.289Z,100779.08
2022-12-25T06:00:33.197Z,100780.6
2022-12-25T06:01:33.332Z,100777.47
2022-12-25T06:02:36.207Z,100778.02
2022-12-25T06:03:34.397Z,100781.75
2022-12-25T06:04:34.636Z,100781.43
2022-12-25T06:05:38.458Z,100783.83
2022-12-25T06:06:35.981Z,100788.02
2022-12-25T06:07:36.417Z,100789.61
2022-12-25T06:08:37.126Z,100796.19
2022-12-25T06:09:37.556Z,100796.53
2022-12-25T06:10:37.761Z,100796.17
2022-12-25T06:11:38.263Z,100798.89
2022-12-25T06:12:38.897Z,100798.58
2022-12-25T06:13:39.132Z,100803.7
2022-12-25T06:14:39.527Z,100805.58
2022-12-25T06:15:41.274Z,100805.43
2022-12-25T06:16:40.815Z,100807.49
2022-12-25T06:17:40.773Z,100806.7
2022-12-25T06:18:43.947Z,100811.61
2022-12-25T06:19:42.631Z,100810.98
2022-12-25T06:20:42.130Z,100810.3
2022-12-25T06:21:42.848Z,100813.48
2022-12-25T06:22:43.170Z,100812.16
2022-12-25T06:23:44.467Z,100814.86
2022-12-25T06:24:44.115Z,100819.02
2022-12-25T06:25:44.407Z,100820.02
2022-12-25T06:26:45.036Z,100821.77
2022-12-25T06:27:45.541Z,100826.11
2022-12-25T06:28:46.894Z,100829.89
2022-12-25T06:29:46.784Z,100828.22
2022-12-25T06:30:46.996Z,100831.01
2022-12-25T06:31:47.582Z,100831.66
2022-12-25T06:32:47.956Z,100831.65
2022-12-25T06:33:49.620Z,100831.59
2022-12-25T06:34:48.926Z,100836.75
2022-12-25T06:35:49.397Z,100835.09
2022-12-25T06:36:50.217Z,100836.22
2022-12-25T06:37:50.219Z,100830.8
2022-12-25T06:38:50.947Z,100832.67
2022-12-25T06:39:51.051Z,100828.3
2022-12-25T06:40:51.570Z,100834.34
2022-12-25T06:41:51.890Z,100830.88
2022-12-25T06:42:52.629Z,100835.12
2022-12-25T06:43:55.576Z,100834.2
2022-12-25T06:44:53.354Z,100834.12
2022-12-25T06:45:54.070Z,100833.23
2022-12-25T06:46:54.773Z,100835.81
2022-12-25T06:47:54.689Z,100836.27
2022-12-25T06:48:55.930Z,100831.71
2022-12-25T06:49:55.528Z,100833.19
2022-12-25T06:50:56.780Z,100841.71
2022-12-25T06:51:56.924Z,100844.11
2022-12-25T06:52:57.337Z,100844.97
2022-12-25T06:53:58.314Z,100846.09
2022-12-25T06:54:58.129Z,100848.37
2022-12-25T06:56:59.072Z,100844.17
2022-12-25T06:57:59.566Z,100841.74
2022-12-25T06:59:05.412Z,100846
2022-12-25T07:00:03.026Z,100842.55
2022-12-25T07:01:09.983Z,100844.43
2022-12-25T07:02:19.957Z,100849.26
2022-12-25T07:03:17.518Z,100851.25
2022-12-25T07:05:19.688Z,100852.16
2022-12-25T07:06:20.297Z,100860.62
2022-12-25T07:07:20.566Z,100861.35
2022-12-25T07:08:21.054Z,100860.88
2022-12-25T07:09:21.345Z,100859.32
2022-12-25T07:10:21.973Z,100857.9
2022-12-25T07:11:22.766Z,100858.75
2022-12-25T07:12:23.927Z,100859.07
2022-12-25T07:13:23.089Z,100862.19
2022-12-25T07:14:24.797Z,100862.75
2022-12-25T07:15:24.051Z,100862.5
2022-12-25T07:16:24.929Z,100867.11
2022-12-25T07:17:25.186Z,100870.18
2022-12-25T07:18:26.854Z,100860.04
2022-12-25T07:19:26.452Z,100868.59
2022-12-25T07:20:26.547Z,100863.11
2022-12-25T07:21:27.606Z,100862.29
2022-12-25T07:22:28.809Z,100870.41
2022-12-25T07:23:28.114Z,100868.86
2022-12-25T07:24:28.622Z,100869.12
2022-12-25T07:25:33.588Z,100871.39
2022-12-25T07:26:29.546Z,100872.92
2022-12-25T07:27:30.193Z,100871.19
2022-12-25T07:28:30.905Z,100873.02
2022-12-25T07:29:30.806Z,100872.42
2022-12-25T07:30:31.225Z,100872.39
2022-12-25T07:31:31.769Z,100870.86
2022-12-25T07:32:32.556Z,100872.96
2022-12-25T07:33:32.935Z,100870.77
2022-12-25T07:34:33.017Z,100871.82
2022-12-25T07:35:33.396Z,100869.17
2022-12-25T07:36:37.091Z,100875.12
2022-12-25T07:37:34.648Z,100871.84
2022-12-25T07:38:35.254Z,100872.06
2022-12-25T07:39:35.395Z,100872.72
2022-12-25T07:40:36.108Z,100873.11
2022-12-25T07:41:36.929Z,100875.8
2022-12-25T07:42:36.830Z,100881.59
2022-12-25T07:43:37.529Z,100879.89
2022-12-25T07:44:37.655Z,100882.65
2022-12-25T07:45:38.524Z,100888.33
2022-12-25T07:46:38.587Z,100888.51
2022-12-25T07:47:39.130Z,100893.55
2022-12-25T07:48:39.632Z,100891.28
2022-12-25T07:49:39.847Z,100887.98
2022-12-25T07:50:40.326Z,100888.8
2022-12-25T07:51:41.036Z,100883.58
2022-12-25T07:52:43.623Z,100885.45
2022-12-25T07:53:42.245Z,100884.54
2022-12-25T07:54:42.233Z,100882.4
2022-12-25T07:55:42.740Z,100880.12
2022-12-25T07:56:43.071Z,100879.87
2022-12-25T07:57:43.570Z,100884.88
2022-12-25T07:58:45.157Z,100883.55
2022-12-25T07:59:44.435Z,100885.91
2022-12-25T08:00:44.790Z,100885.23
2022-12-25T08:01:46.057Z,100877.42
2022-12-25T08:02:46.004Z,100887.48
2022-12-25T08:03:54.113Z,100879.71
2022-12-25T08:04:46.995Z,100882.91
2022-12-25T08:05:47.430Z,100887.15
2022-12-25T08:06:47.932Z,100890.36
2022-12-25T08:07:57.128Z,100887.31
2022-12-25T08:08:50.447Z,100884.17
2022-12-25T08:09:50.961Z,100887.38
2022-12-25T08:10:51.346Z,100885.12
2022-12-25T08:11:51.958Z,100887.05
2022-12-25T08:12:55.366Z,100886.52
2022-12-25T08:13:53.106Z,100889.86
2022-12-25T08:14:53.417Z,100891.02
2022-12-25T08:16:01.173Z,100891.48
2022-12-25T08:16:58.916Z,100897.62
2022-12-25T08:17:59.163Z,100897.61
2022-12-25T08:19:00.312Z,100897
2022-12-25T08:20:00.529Z,100900.05
2022-12-25T08:21:11.598Z,100901.25
2022-12-25T08:22:04.243Z,100906.94
2022-12-25T08:23:05.145Z,100909.58
2022-12-25T08:24:06.053Z,100910.6
2022-12-25T08:25:06.514Z,100911.66
2022-12-25T08:26:08.657Z,100914.34
2022-12-25T08:27:06.771Z,100920.73
2022-12-25T08:28:07.325Z,100919.77
2022-12-25T08:29:07.641Z,100918.97
2022-12-25T08:30:09.297Z,100917.68
2022-12-25T08:31:11.976Z,100917.47
2022-12-25T08:32:09.705Z,100920.34
2022-12-25T08:33:10.234Z,100925.41
2022-12-25T08:34:10.895Z,100925.08
2022-12-25T08:35:11.047Z,100926.55
2022-12-25T08:36:13.242Z,100926.93
2022-12-25T08:37:11.790Z,100930.41
2022-12-25T08:38:12.305Z,100935.8
2022-12-25T08:39:13.238Z,100931.37
2022-12-25T08:40:13.785Z,100932.33
2022-12-25T08:41:14.848Z,100933.44
2022-12-25T08:42:14.050Z,100933.12
2022-12-25T08:43:14.895Z,100934.56
2022-12-25T08:44:15.026Z,100935.61
2022-12-25T08:45:15.750Z,100937.45
2022-12-25T08:46:15.964Z,100932.49
2022-12-25T08:47:16.252Z,100937.89
2022-12-25T08:48:16.788Z,100934.5
2022-12-25T08:49:17.307Z,100942.23
2022-12-25T08:50:17.996Z,100940.03
2022-12-25T08:51:21.748Z,100938.12
2022-12-25T08:52:19.470Z,100942.64
2022-12-25T08:53:21.206Z,100939.02
2022-12-25T08:54:20.255Z,100945.3
2022-12-25T08:55:20.938Z,100945.3
2022-12-25T08:56:21.048Z,100946.86
2022-12-25T08:57:21.432Z,100954.42
2022-12-25T08:58:21.956Z,100954.68
2022-12-25T08:59:22.685Z,100957.22
2022-12-25T09:00:23.066Z,100957.08
2022-12-25T09:01:23.619Z,100955.88
2022-12-25T09:02:24.204Z,100956.03
2022-12-25T09:03:24.991Z,100954.48
2022-12-25T09:04:24.964Z,100957.12
2022-12-25T09:05:25.202Z,100959.28
2022-12-25T09:06:25.494Z,100955.62
2022-12-25T09:07:25.992Z,100957.97
2022-12-25T09:08:26.525Z,100956.03
2022-12-25T09:09:27.880Z,100959.55
2022-12-25T09:10:27.387Z,100966.3
2022-12-25T09:11:27.781Z,100964.69
2022-12-25T09:12:28.216Z,100964.72
2022-12-25T09:13:29.342Z,100962.84
2022-12-25T09:14:30.458Z,100965.17
2022-12-25T09:15:30.293Z,100957.62
2022-12-25T09:16:30.597Z,100958.09
2022-12-25T09:17:31.333Z,100955.92
2022-12-25T09:18:32.240Z,100956.41
2022-12-25T09:19:31.840Z,100955.05
2022-12-25T09:20:32.370Z,100955.14
2022-12-25T09:21:32.675Z,100953.09
2022-12-25T09:22:33.801Z,100960.05
2022-12-25T09:23:34.016Z,100962.06
2022-12-25T09:24:34.275Z,100961.16
2022-12-25T09:25:34.115Z,100961.3
2022-12-25T09:26:34.906Z,100959.92
2022-12-25T09:27:34.862Z,100960.29
2022-12-25T09:28:36.006Z,100963.5
2022-12-25T09:29:36.490Z,100959.38
2022-12-25T09:30:36.942Z,100959.82
2022-12-25T09:31:36.626Z,100964.01
2022-12-25T09:32:37.139Z,100955.56
2022-12-25T09:33:37.636Z,100956.98
2022-12-25T09:34:37.961Z,100956.75
2022-12-25T09:35:38.584Z,100955.38
2022-12-25T09:36:39.019Z,100958.31
2022-12-25T09:37:39.418Z,100959.23
2022-12-25T09:38:39.937Z,100957.03
2022-12-25T09:39:46.103Z,100956.05
2022-12-25T09:40:44.250Z,100959.21
2022-12-25T09:42:49.600Z,100966.67
2022-12-25T09:43:56.157Z,100967.66
2022-12-25T09:45:02.618Z,100966.94
2022-12-25T09:45:50.289Z,100964.8
2022-12-25T09:46:54.949Z,100962.28
2022-12-25T09:47:56.601Z,100958.43
2022-12-25T09:52:06.749Z,100969.16
2022-12-25T09:55:21.536Z,100971.01
2022-12-25T09:56:24.701Z,100972.38
2022-12-25T09:57:17.165Z,100970.82
2022-12-25T09:58:17.747Z,100977.22
2022-12-25T09:59:27.804Z,100978.6
2022-12-25T10:00:23.623Z,100980.59
2022-12-25T10:10:55.820Z,100981.98
2022-12-25T10:21:19.956Z,100973.05
2022-12-25T10:26:31.758Z,100976.66
2022-12-25T10:29:35.938Z,100978.21
2022-12-25T10:30:36.537Z,100977.91
2022-12-25T10:31:36.987Z,100979.91
2022-12-25T10:32:37.331Z,100977.94
2022-12-25T10:33:37.735Z,100977.28
2022-12-25T10:34:41.535Z,100976.92
2022-12-25T10:35:40.015Z,100975.73
2022-12-25T10:36:40.807Z,100979.73
2022-12-25T10:37:41.655Z,100980.08
2022-12-25T10:38:40.336Z,100980.59
2022-12-25T10:39:46.742Z,100978.55
2022-12-25T10:43:03.008Z,100974.95
2022-12-25T10:43:57.260Z,100981.22
2022-12-25T10:45:01.287Z,100976.45
2022-12-25T10:45:59.391Z,100981.22
2022-12-25T10:47:01.276Z,100981.55
2022-12-25T10:48:07.770Z,100980.98
2022-12-25T10:49:02.794Z,100979.84
2022-12-25T10:50:07.928Z,100981.66
2022-12-25T10:51:06.725Z,100986.27
2022-12-25T10:55:22.388Z,100985.64
2022-12-25T10:56:18.455Z,100983.7
2022-12-25T10:57:21.415Z,100984.23
2022-12-25T10:58:21.525Z,100985.36
2022-12-25T10:59:19.376Z,100986.55
2022-12-25T11:00:22.630Z,100985.37
2022-12-25T11:01:20.649Z,100983.8
2022-12-25T11:02:34.787Z,100983.22
2022-12-25T11:03:28.482Z,100987.61
2022-12-25T11:04:28.021Z,100990.34
2022-12-25T11:05:34.909Z,100988.77
2022-12-25T11:06:31.093Z,100986.96
2022-12-25T11:07:29.254Z,100990.97
2022-12-25T11:08:31.423Z,100990.05
2022-12-25T11:09:29.901Z,100992.3
2022-12-25T11:10:39.823Z,100989.33
2022-12-25T11:11:32.737Z,100992.69
2022-12-25T11:12:38.309Z,100993.13
2022-12-25T11:13:41.586Z,100996.68
2022-12-25T11:14:39.135Z,101000.21
2022-12-25T11:15:43.748Z,100998.94
2022-12-25T11:16:41.460Z,100997.03
2022-12-25T11:17:49.398Z,101003.7
2022-12-25T11:18:51.630Z,101002.28
2022-12-25T11:19:54.328Z,101005.39
2022-12-25T11:20:54.443Z,101003.16
2022-12-25T11:21:54.892Z,101002.34
2022-12-25T11:22:53.233Z,100993.12
2022-12-25T11:24:01.829Z,100998.69
2022-12-25T11:24:54.356Z,100992.88
2022-12-25T11:26:08.609Z,100992.72
2022-12-25T11:26:59.430Z,100990.02
2022-12-25T11:28:05.857Z,100986.95
2022-12-25T11:28:59.300Z,100983.89
2022-12-25T11:30:04.013Z,100982.59
2022-12-25T11:32:04.248Z,100980.93
2022-12-25T11:38:19.748Z,100991.66
2022-12-25T11:41:28.558Z,100991.19
2022-12-25T11:42:36.685Z,100994.44
2022-12-25T11:45:41.499Z,100992.52
2022-12-25T11:46:46.097Z,100984.77
2022-12-25T11:48:51.655Z,100986.79
2022-12-25T11:51:58.216Z,100995.08
2022-12-25T11:57:12.916Z,101006.94
2022-12-25T12:00:20.604Z,101007.55
2022-12-25T12:07:35.598Z,101027.41
2022-12-25T12:08:35.685Z,101025.88
2022-12-25T12:15:49.467Z,101036.78
2022-12-25T12:16:47.165Z,101034.66
2022-12-25T12:17:47.336Z,101039.6
2022-12-25T12:18:50.783Z,101040.59
2022-12-25T12:19:48.472Z,101044.54
2022-12-25T12:21:50.022Z,101042.47
2022-12-25T12:22:50.652Z,101043.99
2022-12-25T12:25:07.465Z,101050.68
2022-12-25T12:25:55.609Z,101053.12
2022-12-25T12:27:03.485Z,101051.23
2022-12-25T12:28:04.934Z,101051.55
2022-12-25T12:29:01.145Z,101050.16
2022-12-25T12:30:00.313Z,101048.23
2022-12-25T12:31:07.080Z,101045.83
2022-12-25T12:32:04.925Z,101045.88
2022-12-25T12:33:09.445Z,101047.61
2022-12-25T12:34:18.667Z,101053.91
2022-12-25T12:36:15.107Z,101053.41
2022-12-25T12:38:20.338Z,101053.88
2022-12-25T12:42:29.469Z,101050.28
2022-12-25T12:44:33.795Z,101048.02
2022-12-25T12:45:34.866Z,101046.42
2022-12-25T12:46:37.903Z,101045.53
2022-12-25T12:47:43.948Z,101047.72
2022-12-25T12:48:42.630Z,101046.87
2022-12-25T12:49:40.789Z,101045.7
2022-12-25T12:50:41.719Z,101046.66
2022-12-25T12:51:40.897Z,101047.7
2022-12-25T12:52:41.343Z,101048.23
2022-12-25T12:53:43.384Z,101050.91
2022-12-25T12:55:44.203Z,101047.29
2022-12-25T12:58:50.582Z,101054.52
2022-12-25T12:59:50.275Z,101053.3
2022-12-25T13:12:25.185Z,101053.59
2022-12-25T13:14:28.210Z,101056.38
2022-12-25T13:16:35.036Z,101059.66
2022-12-25T13:17:32.476Z,101061.95
2022-12-25T13:18:34.323Z,101059.06
2022-12-25T13:19:36.487Z,101064.11
2022-12-25T13:21:37.823Z,101061.07
2022-12-25T13:22:38.235Z,101062.06
2022-12-25T13:23:38.655Z,101065.6
2022-12-25T13:24:39.693Z,101069.2
2022-12-25T13:25:39.595Z,101073.84
2022-12-25T13:26:40.126Z,101077.75
2022-12-25T13:27:40.431Z,101075.2
2022-12-25T13:28:41.371Z,101076.22
2022-12-25T13:29:41.361Z,101076.16
2022-12-25T13:30:42.510Z,101080.3
2022-12-25T13:31:42.594Z,101080.14
2022-12-25T13:32:43.813Z,101082.67
2022-12-25T13:34:46.523Z,101080
2022-12-25T13:35:47.235Z,101075.14
2022-12-25T13:36:46.934Z,101078.57
2022-12-25T13:37:48.099Z,101082.47
2022-12-25T13:38:51.479Z,101087.06
2022-12-25T13:40:53.362Z,101086.13
2022-12-25T13:41:53.516Z,101089.24
2022-12-25T13:43:58.041Z,101090.09
2022-12-25T13:45:58.059Z,101092.94
2022-12-25T13:49:01.958Z,101096.47
2022-12-25T13:51:04.746Z,101093.62
2022-12-25T13:54:11.626Z,101097.91
2022-12-25T13:56:14.712Z,101097.84
2022-12-25T13:57:12.773Z,101100.33
2022-12-25T13:59:18.615Z,101097.66
2022-12-25T14:00:23.288Z,101095.7
2022-12-25T14:01:20.987Z,101100.7
2022-12-25T14:02:28.827Z,101099.64
2022-12-25T14:04:26.333Z,101100.38
2022-12-25T14:06:30.138Z,101098.89
2022-12-25T14:07:28.088Z,101100.17
2022-12-25T14:08:30.452Z,101101.32
2022-12-25T14:09:29.327Z,101101.27
2022-12-25T14:10:38.055Z,101093.55
2022-12-25T14:11:32.410Z,101096.69
2022-12-25T14:12:33.050Z,101094.19
2022-12-25T14:13:33.559Z,101086.7
2022-12-25T14:14:32.241Z,101089.55
2022-12-25T14:15:35.007Z,101094.14
2022-12-25T14:16:34.220Z,101092.61
2022-12-25T14:17:34.196Z,101091.53
2022-12-25T14:18:34.320Z,101092.44
2022-12-25T14:19:34.600Z,101099.92
2022-12-25T14:20:41.306Z,101096.77
2022-12-25T14:21:43.444Z,101101.52
2022-12-25T14:22:40.998Z,101105.86
2022-12-25T14:23:46.862Z,101108.7